Time;durP1;ratioP1;P1;durP2;ratioP2;P2;SDS_P1;SDS_P2;PMS_P1;PMS_P2;Temp;Humidity;BMP_temperature;BMP_pressure;BME280_temperature;BME280_humidity;BME280_pressure;Samples;Min_cycle;Max_cycle;Signal;HPM_P1;HPM_P2
2021/01/03 00:01:10;;;;;;;8.10;4.07;;;;;;;0.11;83.58;101794.16;4955964;28;20078;-84
2021/01/03 00:03:38;;;;;;;7.00;5.38;;;;;;;0.10;83.56;101795.25;4956378;28;20069;-83
2021/01/03 00:06:06;;;;;;;7.03;4.32;;;;;;;0.09;83.54;101804.47;4939335;28;20130;-81
2021/01/03 00:08:32;;;;;;;8.93;4.28;;;;;;;0.08;83.33;101800.09;4972803;28;20097;-82
2021/01/03 00:10:59;;;;;;;6.32;4.20;;;;;;;0.11;83.73;101805.03;4972851;28;20046;-80
2021/01/03 00:13:26;;;;;;;7.43;4.50;;;;;;;0.10;83.68;101808.84;4972653;28;20081;-83
2021/01/03 00:15:52;;;;;;;9.82;4.05;;;;;;;0.10;83.40;101797.13;4972690;28;20503;-80
2021/01/03 00:18:19;;;;;;;16.70;4.93;;;;;;;0.10;83.81;101808.84;4952824;28;20117;-84
2021/01/03 00:20:47;;;;;;;7.13;4.10;;;;;;;0.11;83.67;101805.03;4955783;28;20134;-82
2021/01/03 00:23:13;;;;;;;8.95;5.38;;;;;;;0.11;83.64;101798.78;4959345;28;20097;-82
2021/01/03 00:25:40;;;;;;;14.82;4.80;;;;;;;0.09;83.67;101801.75;4959155;28;20400;-87
2021/01/03 00:28:06;;;;;;;8.88;4.68;;;;;;;0.10;83.70;101814.31;4960674;28;20058;-87
2021/01/03 00:30:33;;;;;;;11.95;4.38;;;;;;;0.08;83.62;101808.25;4959093;28;20156;-83
2021/01/03 00:33:00;;;;;;;9.43;4.88;;;;;;;0.08;83.60;101800.09;4942906;28;20051;-83
2021/01/03 00:35:32;;;;;;;9.25;4.53;;;;;;;0.05;83.48;101811.50;4975837;28;20039;-82
2021/01/03 00:38:04;;;;;;;8.73;4.47;;;;;;;0.04;83.34;101806.28;4976368;28;20047;-82
2021/01/03 00:40:31;;;;;;;11.05;5.38;;;;;;;0.02;83.68;101806.56;4942820;28;20469;-82
2021/01/03 00:42:58;;;;;;;8.70;4.78;;;;;;;0.00;83.55;101803.25;4958759;28;20038;-82
2021/01/03 00:45:26;;;;;;;10.70;5.47;;;;;;;-0.04;83.38;101807.53;4958039;28;20046;-83
2021/01/03 00:47:57;;;;;;;9.13;5.13;;;;;;;-0.08;83.52;101801.75;4969050;28;20069;-81
2021/01/03 00:50:27;;;;;;;11.82;5.07;;;;;;;-0.09;83.49;101808.31;4995247;28;20070;-83
2021/01/03 00:52:55;;;;;;;11.82;5.55;;;;;;;-0.13;83.41;101803.56;4978883;28;20039;-82
2021/01/03 00:55:21;;;;;;;10.20;5.68;;;;;;;-0.14;83.51;101804.66;4975590;28;20086;-82
2021/01/03 00:57:49;;;;;;;11.07;5.95;;;;;;;-0.18;83.51;101803.50;4959241;28;20039;-83
2021/01/03 01:00:25;;;;;;;9.60;4.88;;;;;;;-0.18;83.65;101807.06;4958446;28;20050;-83
2021/01/03 01:02:51;;;;;;;12.20;5.15;;;;;;;-0.20;83.55;101806.47;4958280;28;20066;-83
2021/01/03 01:05:19;;;;;;;17.58;5.22;;;;;;;-0.21;83.60;101802.09;4957812;28;20078;-82
2021/01/03 01:07:47;;;;;;;9.52;4.30;;;;;;;-0.20;83.61;101797.50;4976076;28;20119;-83
2021/01/03 01:10:23;;;;;;;8.15;5.50;;;;;;;-0.22;83.38;101799.66;4965116;28;20775;-82
2021/01/03 01:12:51;;;;;;;7.15;3.85;;;;;;;-0.22;83.71;101794.19;4958099;28;20399;-82
2021/01/03 01:15:20;;;;;;;8.90;4.22;;;;;;;-0.23;83.73;101787.94;4958385;28;20106;-82
2021/01/03 01:17:48;;;;;;;9.93;5.28;;;;;;;-0.24;83.91;101796.34;4957456;28;20050;-82
2021/01/03 01:20:26;;;;;;;8.25;4.07;;;;;;;-0.23;83.50;101797.97;4942297;28;20566;-83
2021/01/03 01:22:53;;;;;;;9.57;4.38;;;;;;;-0.24;83.60;101799.88;4958417;28;20093;-83
2021/01/03 01:25:23;;;;;;;11.45;4.20;;;;;;;-0.23;83.71;101797.97;4943348;28;20042;-83
2021/01/03 01:27:53;;;;;;;6.95;3.65;;;;;;;-0.24;83.61;101794.44;4971979;28;20143;-81
2021/01/03 01:30:20;;;;;;;7.32;3.75;;;;;;;-0.25;83.67;101791.97;4973998;28;20137;-82
2021/01/03 01:32:47;;;;;;;6.05;4.30;;;;;;;-0.23;83.76;101797.97;4974208;28;20043;-83
2021/01/03 01:35:17;;;;;;;6.35;3.40;;;;;;;-0.22;83.63;101805.09;4973947;28;20085;-81
2021/01/03 01:37:43;;;;;;;9.13;3.55;;;;;;;-0.20;83.63;101798.31;4958004;28;20078;-82
2021/01/03 01:40:12;;;;;;;10.18;4.43;;;;;;;-0.19;83.68;101801.88;4941995;28;20081;-82
2021/01/03 01:42:39;;;;;;;10.13;3.67;;;;;;;-0.20;83.62;101802.94;4942201;28;20101;-83
2021/01/03 01:45:08;;;;;;;9.23;4.10;;;;;;;-0.21;83.76;101799.38;4942371;28;20045;-83
2021/01/03 01:47:39;;;;;;;7.80;4.28;;;;;;;-0.18;83.50;101795.34;4941267;28;20047;-82
2021/01/03 01:50:09;;;;;;;9.68;4.82;;;;;;;-0.20;83.75;101801.03;4958161;28;20043;-83
2021/01/03 01:52:47;;;;;;;13.10;5.25;;;;;;;-0.20;83.67;101802.94;4957668;28;20097;-82
2021/01/03 01:55:38;;;;;;;9.43;5.28;;;;;;;-0.22;83.72;101810.53;4941547;28;20054;-81
2021/01/03 01:58:17;;;;;;;9.93;4.55;;;;;;;-0.20;83.63;101819.25;4956141;28;20053;-82
2021/01/03 02:00:52;;;;;;;7.35;4.93;;;;;;;-0.19;83.58;101808.16;4953874;28;20102;-83
2021/01/03 02:03:26;;;;;;;9.10;4.93;;;;;;;-0.16;83.91;101812.25;4953656;28;20106;-83
2021/01/03 02:06:09;;;;;;;8.15;4.82;;;;;;;-0.18;83.62;101807.06;4952415;28;20046;-82
2021/01/03 02:08:48;;;;;;;;;;;;;;;-0.18;83.85;101820.66;4958666;28;20097;-82
2021/01/03 02:11:26;;;;;;;7.85;4.00;;;;;;;-0.14;84.07;101815.56;4973600;28;20381;-83
2021/01/03 02:13:56;;;;;;;6.45;3.53;;;;;;;-0.11;83.90;101817.78;4941328;28;20050;-84
2021/01/03 02:16:28;;;;;;;9.43;4.18;;;;;;;-0.08;83.78;101817.28;4938701;29;20333;-82
2021/01/03 02:18:55;;;;;;;5.05;2.92;;;;;;;-0.07;83.59;101814.31;4953744;28;20051;-83
2021/01/03 02:21:47;;;;;;;6.05;2.97;;;;;;;-0.07;83.69;101814.31;4957525;28;20134;-83
2021/01/03 02:24:46;;;;;;;6.95;4.68;;;;;;;-0.08;83.47;101820.81;4928216;28;20086;-82
2021/01/03 02:27:26;;;;;;;8.45;3.78;;;;;;;-0.08;83.91;101823.53;4957529;28;20049;-82
2021/01/03 02:29:56;;;;;;;5.63;3.20;;;;;;;-0.06;83.73;101824.13;4957684;28;20047;-82
2021/01/03 02:32:23;;;;;;;6.40;3.40;;;;;;;-0.06;83.64;101821.41;4956640;28;20475;-83
2021/01/03 02:34:50;;;;;;;7.72;3.25;;;;;;;-0.04;83.70;101821.97;4973505;28;20071;-83
2021/01/03 02:37:40;;;;;;;5.70;3.42;;;;;;;-0.03;83.74;101825.53;4973936;28;20078;-82
2021/01/03 02:40:17;;;;;;;5.38;3.53;;;;;;;-0.02;83.60;101827.16;4956950;28;20077;-82
2021/01/03 02:42:44;;;;;;;6.60;3.28;;;;;;;0.00;83.89;101823.13;4940697;28;20043;-82
2021/01/03 02:45:22;;;;;;;6.35;2.83;;;;;;;0.03;83.90;101824.53;4955980;28;20133;-83
2021/01/03 02:47:49;;;;;;;6.38;3.42;;;;;;;0.09;84.11;101818.09;4942915;28;20138;-83
2021/01/03 02:50:24;;;;;;;4.80;3.00;;;;;;;0.15;84.13;101811.66;4956699;28;20051;-81
2021/01/03 02:52:51;;;;;;;5.45;2.97;;;;;;;0.20;83.92;101809.00;4972450;28;20122;-83
2021/01/03 02:55:18;;;;;;;4.50;3.38;;;;;;;0.25;83.99;101808.22;4974259;28;20078;-82
2021/01/03 02:57:45;;;;;;;6.93;2.97;;;;;;;0.30;83.73;101806.41;4956058;28;20057;-82
2021/01/03 03:00:24;;;;;;;5.50;2.83;;;;;;;0.35;83.79;101805.66;4956708;28;20122;-83
2021/01/03 03:02:51;;;;;;;4.93;2.80;;;;;;;0.39;83.98;101813.09;4966349;28;20105;-83
2021/01/03 03:05:21;;;;;;;3.60;3.05;;;;;;;0.43;83.79;101808.75;4973267;28;20086;-83
2021/01/03 03:07:49;;;;;;;7.53;3.42;;;;;;;0.45;83.89;101817.50;4956997;28;20392;-83
2021/01/03 03:10:17;;;;;;;3.85;2.47;;;;;;;0.47;83.52;101811.81;4940775;28;20049;-81
2021/01/03 03:12:52;;;;;;;6.00;2.75;;;;;;;0.47;83.77;101826.28;4972484;28;20151;-83
2021/01/03 03:15:20;;;;;;;3.20;2.50;;;;;;;0.49;83.75;101810.50;4965802;28;20439;-82
2021/01/03 03:17:47;;;;;;;6.72;2.40;;;;;;;0.52;83.68;101811.88;4940559;28;20078;-81
2021/01/03 03:20:15;;;;;;;3.08;2.60;;;;;;;0.53;83.92;101806.16;4953329;29;20043;-83
2021/01/03 03:22:41;;;;;;;4.80;3.17;;;;;;;0.57;84.08;101815.50;4962171;28;20054;-82
2021/01/03 03:25:09;;;;;;;3.85;2.17;;;;;;;0.58;83.69;101806.22;4972908;28;20074;-81
2021/01/03 03:27:35;;;;;;;4.70;2.90;;;;;;;0.60;83.59;101806.81;4972728;28;20507;-82
2021/01/03 03:30:08;;;;;;;6.28;2.55;;;;;;;0.61;83.68;101796.72;4955688;28;20050;-82
2021/01/03 03:32:35;;;;;;;8.40;2.88;;;;;;;0.63;83.79;101802.78;4955494;28;20047;-83
2021/01/03 03:35:04;;;;;;;4.22;2.28;;;;;;;0.63;83.50;101801.94;4939553;28;20050;-81
2021/01/03 03:37:31;;;;;;;2.78;1.88;;;;;;;0.63;83.61;101797.31;4973726;28;20098;-82
2021/01/03 03:39:57;;;;;;;4.90;2.42;;;;;;;0.63;83.46;101801.94;4956458;28;20066;-82
2021/01/03 03:42:24;;;;;;;5.95;2.85;;;;;;;0.64;83.86;101803.59;4940146;28;20047;-81
2021/01/03 03:44:50;;;;;;;5.97;2.50;;;;;;;0.65;84.03;101805.22;4939472;28;20039;-82
2021/01/03 03:47:17;;;;;;;5.43;2.75;;;;;;;0.65;83.63;101800.59;4939717;28;20051;-83
2021/01/03 03:49:43;;;;;;;3.95;2.38;;;;;;;0.68;84.05;101811.00;4955878;28;20416;-80
2021/01/03 03:52:09;;;;;;;4.28;2.63;;;;;;;0.71;83.88;101807.78;4971535;28;20487;-82
2021/01/03 03:54:36;;;;;;;3.85;2.30;;;;;;;0.73;83.73;101807.50;4972157;28;20492;-83
2021/01/03 03:57:05;;;;;;;6.13;2.75;;;;;;;0.72;83.60;101808.56;4975146;28;20046;-82
2021/01/03 03:59:31;;;;;;;7.80;3.92;;;;;;;0.72;83.83;101806.69;4962735;28;20067;-83
2021/01/03 04:01:58;;;;;;;4.68;2.40;;;;;;;0.72;83.98;101805.84;4962934;28;20039;-83
2021/01/03 04:04:25;;;;;;;3.78;2.80;;;;;;;0.70;83.85;101803.41;4971110;28;20061;-82
2021/01/03 04:06:52;;;;;;;6.28;3.00;;;;;;;0.72;83.67;101803.13;4977146;28;20042;-82
2021/01/03 04:09:19;;;;;;;4.38;2.67;;;;;;;0.72;83.96;101808.56;4959767;28;20042;-83
2021/01/03 04:11:47;;;;;;;6.57;3.33;;;;;;;0.70;83.68;101797.13;4976975;28;20039;-83
2021/01/03 04:14:21;;;;;;;4.85;3.13;;;;;;;0.70;84.00;101805.28;4949867;28;20503;-82
2021/01/03 04:16:51;;;;;;;5.03;2.35;;;;;;;0.69;83.96;101809.09;4960025;28;20038;-83
2021/01/03 04:19:18;;;;;;;4.53;2.80;;;;;;;0.70;83.64;101808.00;4943216;28;20039;-84
2021/01/03 04:21:57;;;;;;;7.93;2.40;;;;;;;0.73;83.75;101812.97;4959187;28;20484;-82
2021/01/03 04:24:24;;;;;;;5.45;2.65;;;;;;;0.74;84.04;101804.56;4975894;28;20499;-82
2021/01/03 04:26:53;;;;;;;5.88;2.72;;;;;;;0.74;84.04;101807.28;4949995;28;20035;-83
2021/01/03 04:29:20;;;;;;;6.35;3.15;;;;;;;0.74;83.89;101809.16;4958926;28;20507;-83
2021/01/03 04:31:52;;;;;;;3.35;2.15;;;;;;;0.75;83.81;101805.34;4943408;28;20079;-81
2021/01/03 04:34:18;;;;;;;5.10;2.65;;;;;;;0.71;83.60;101798.78;4972433;28;20081;-83
2021/01/03 04:36:51;;;;;;;7.85;3.45;;;;;;;0.67;83.60;101803.06;4975127;28;20047;-83
2021/01/03 04:39:19;;;;;;;5.13;2.47;;;;;;;0.65;83.92;101786.16;4976989;28;20085;-83
2021/01/03 04:41:48;;;;;;;5.40;2.72;;;;;;;0.64;83.56;101795.44;4942915;28;20575;-83
2021/01/03 04:44:26;;;;;;;4.80;2.65;;;;;;;0.59;83.53;101788.00;4955974;29;20471;-83
2021/01/03 04:46:52;;;;;;;4.55;2.80;;;;;;;0.57;83.56;101792.88;4952745;28;20034;-83
2021/01/03 04:49:30;;;;;;;5.57;2.20;;;;;;;0.51;83.68;101783.81;4942861;28;20404;-83
2021/01/03 04:52:28;;;;;;;7.03;2.75;;;;;;;0.46;83.71;101783.75;4943293;28;20076;-83
2021/01/03 04:55:05;;;;;;;9.65;3.65;;;;;;;0.44;83.68;101788.63;4943286;28;20047;-83
2021/01/03 04:57:43;;;;;;;4.47;2.50;;;;;;;0.41;83.49;101797.31;4974489;28;20142;-83
2021/01/03 05:00:10;;;;;;;6.15;3.05;;;;;;;0.42;83.84;101800.84;4958737;28;20102;-83
2021/01/03 05:03:18;;;;;;;5.03;3.25;;;;;;;0.38;83.46;101803.25;4942358;28;20061;-84
2021/01/03 05:05:48;;;;;;;4.28;2.50;;;;;;;0.38;83.69;101811.44;4897671;28;20051;-83
2021/01/03 05:08:52;;;;;;;4.13;2.42;;;;;;;0.34;83.58;101806.75;4957369;28;20062;-83
2021/01/03 05:11:22;;;;;;;3.85;2.20;;;;;;;0.32;83.51;101806.97;4971478;28;20038;-83
2021/01/03 05:13:58;;;;;;;6.32;2.65;;;;;;;0.32;83.63;101804.25;4975014;28;20047;-83
2021/01/03 05:16:24;;;;;;;3.67;1.80;;;;;;;0.30;83.68;101805.56;4942859;28;20118;-82
2021/01/03 05:18:51;;;;;;;3.47;2.25;;;;;;;0.31;83.99;101799.06;4973505;28;20502;-83
2021/01/03 05:21:18;;;;;;;4.63;2.33;;;;;;;0.33;83.89;101811.34;4942923;28;20121;-84
2021/01/03 05:24:02;;;;;;;6.65;3.95;;;;;;;0.34;83.70;101807.56;4958921;28;20046;-83
2021/01/03 05:26:35;;;;;;;6.28;2.15;;;;;;;0.38;83.94;101810.59;4974643;28;20480;-83
2021/01/03 05:29:02;;;;;;;5.70;2.70;;;;;;;0.39;83.81;101807.63;4959934;28;20101;-82
2021/01/03 05:31:29;;;;;;;11.95;2.63;;;;;;;0.38;83.76;101803.25;4960582;28;20559;-83
2021/01/03 05:34:03;;;;;;;3.92;2.50;;;;;;;0.40;83.93;101809.25;4941251;28;20047;-83
2021/01/03 05:36:42;;;;;;;6.03;2.58;;;;;;;0.42;83.79;101815.31;4958482;28;20086;-83
2021/01/03 05:39:18;;;;;;;8.95;2.50;;;;;;;0.42;83.67;101815.31;4942086;28;20042;-82
2021/01/03 05:41:44;;;;;;;7.68;2.13;;;;;;;0.43;83.48;101816.94;4976373;28;20475;-81
2021/01/03 05:44:31;;;;;;;3.47;2.38;;;;;;;0.40;83.41;101808.44;4957762;28;20062;-82
2021/01/03 05:47:17;;;;;;;5.28;2.05;;;;;;;0.37;83.58;101808.97;4941793;28;20085;-84
2021/01/03 05:49:45;;;;;;;6.05;2.53;;;;;;;0.36;83.55;101812.75;4960577;28;20574;-82
2021/01/03 05:52:29;;;;;;;4.47;2.25;;;;;;;0.34;83.47;101813.03;4967769;28;20054;-83
2021/01/03 05:55:03;;;;;;;3.83;1.90;;;;;;;0.32;83.36;101806.97;4948859;28;20046;-83
2021/01/03 05:57:33;;;;;;;6.90;2.78;;;;;;;0.29;83.42;101812.91;4957602;28;20117;-82
2021/01/03 06:00:14;;;;;;;3.50;2.15;;;;;;;0.24;83.47;101812.06;4975777;28;20101;-82
2021/01/03 06:02:40;;;;;;;4.53;2.45;;;;;;;0.22;83.53;101817.72;4957204;28;20063;-81
2021/01/03 06:05:14;;;;;;;5.38;2.42;;;;;;;0.18;83.63;101813.88;4957797;28;20047;-83
2021/01/03 06:08:05;;;;;;;2.85;2.03;;;;;;;0.20;83.68;101819.06;4957881;28;20470;-83
2021/01/03 06:10:35;;;;;;;5.78;2.67;;;;;;;0.19;83.26;101814.66;4956994;28;20505;-83
2021/01/03 06:13:05;;;;;;;6.85;2.35;;;;;;;0.16;83.74;101824.16;4957522;28;20827;-83
2021/01/03 06:15:39;;;;;;;7.15;2.30;;;;;;;0.18;83.53;101815.78;4975748;28;20047;-82
2021/01/03 06:18:13;;;;;;;6.40;2.58;;;;;;;0.21;83.96;101816.09;4957323;28;20052;-82
2021/01/03 06:20:40;;;;;;;5.68;2.63;;;;;;;0.22;83.85;101817.72;4955197;28;20126;-83
2021/01/03 06:23:29;;;;;;;4.50;2.03;;;;;;;0.22;83.48;101822.34;4950146;28;20141;-82
2021/01/03 06:26:17;;;;;;;3.95;2.15;;;;;;;0.22;83.42;101838.69;4974786;28;20062;-82
2021/01/03 06:28:50;;;;;;;7.88;2.47;;;;;;;0.16;83.65;101824.16;4957410;28;20553;-81
2021/01/03 06:31:38;;;;;;;4.75;2.38;;;;;;;0.17;83.50;101825.00;4956723;28;20508;-83
2021/01/03 06:34:21;;;;;;;5.93;2.22;;;;;;;0.17;83.43;101833.16;4974322;28;20045;-82
2021/01/03 06:37:06;;;;;;;4.53;2.47;;;;;;;0.15;83.25;101836.16;4922631;29;20108;-84
2021/01/03 06:39:38;;;;;;;4.53;2.38;;;;;;;0.13;83.43;101841.03;4952580;28;20074;-83
2021/01/03 06:42:33;;;;;;;4.63;2.35;;;;;;;0.08;83.38;101840.94;4973048;28;20392;-83
2021/01/03 06:45:33;;;;;;;4.18;1.80;;;;;;;0.03;83.42;101838.13;4956538;28;20039;-81
2021/01/03 06:48:19;;;;;;;4.32;2.25;;;;;;;-0.02;83.26;101838.06;4949447;28;20858;-83
2021/01/03 06:51:10;;;;;;;6.65;2.72;;;;;;;-0.09;83.33;101842.84;4967817;28;20039;-82
2021/01/03 06:53:55;;;;;;;4.97;2.50;;;;;;;-0.18;83.46;101845.16;4956723;28;20038;-83
2021/01/03 06:56:27;;;;;;;6.85;2.15;;;;;;;-0.22;83.41;101848.63;4940283;28;20063;-83
2021/01/03 06:59:13;;;;;;;4.10;2.80;;;;;;;-0.25;83.58;101838.22;4940861;28;20047;-82
2021/01/03 07:01:40;;;;;;;7.28;3.03;;;;;;;-0.27;83.28;101851.25;4954994;28;20070;-82
2021/01/03 07:04:22;;;;;;;4.18;2.38;;;;;;;-0.31;83.46;101842.75;4950997;29;20039;-82
2021/01/03 07:06:50;;;;;;;5.97;2.42;;;;;;;-0.33;83.42;101847.63;4953868;29;20039;-81
2021/01/03 07:09:18;;;;;;;6.40;2.65;;;;;;;-0.34;83.36;101839.69;4952439;29;20043;-83
2021/01/03 07:11:57;;;;;;;6.20;2.67;;;;;;;-0.33;83.44;101852.25;4937825;29;20081;-82
2021/01/03 07:14:25;;;;;;;3.72;2.15;;;;;;;-0.37;83.62;101849.19;4937020;29;20142;-82
2021/01/03 07:16:54;;;;;;;4.80;2.47;;;;;;;-0.37;83.46;101851.09;4921419;29;20569;-83
2021/01/03 07:19:30;;;;;;;3.63;2.30;;;;;;;-0.36;83.47;101845.41;4921712;29;20141;-82
2021/01/03 07:22:12;;;;;;;6.95;2.60;;;;;;;-0.36;83.57;101847.28;4937346;29;20039;-82
2021/01/03 07:24:44;;;;;;;7.32;2.55;;;;;;;-0.37;83.68;101856.53;4937128;29;20055;-82
2021/01/03 07:27:26;;;;;;;3.22;2.08;;;;;;;-0.40;83.63;101851.59;4937549;29;20552;-81
2021/01/03 07:29:55;;;;;;;2.72;1.52;;;;;;;-0.37;83.68;101856.53;4946811;29;20577;-82
2021/01/03 07:32:36;;;;;;;5.22;2.00;;;;;;;-0.35;83.75;101855.22;4939025;29;20071;-83
2021/01/03 07:35:23;;;;;;;5.72;2.05;;;;;;;-0.32;83.70;101862.06;4941115;29;20047;-84
2021/01/03 07:37:51;;;;;;;4.72;1.77;;;;;;;-0.28;83.35;101861.31;4928811;29;20595;-82
2021/01/03 07:40:21;;;;;;;1.40;1.27;;;;;;;-0.25;83.50;101854.56;4958429;29;20130;-83
2021/01/03 07:42:47;;;;;;;3.00;1.60;;;;;;;-0.22;84.03;101863.06;4925552;29;20114;-82
2021/01/03 07:45:13;;;;;;;2.70;1.75;;;;;;;-0.20;83.65;101873.69;4957149;29;20171;-82
2021/01/03 07:47:47;;;;;;;1.45;1.33;;;;;;;-0.22;83.45;101857.63;4941470;29;20051;-82
2021/01/03 07:50:17;;;;;;;4.95;1.70;;;;;;;-0.20;83.39;101862.81;4940968;29;20103;-83
2021/01/03 07:52:46;;;;;;;2.45;1.42;;;;;;;-0.20;83.74;101862.81;4940752;29;20118;-82
2021/01/03 07:55:26;;;;;;;2.75;1.40;;;;;;;-0.21;83.42;101850.25;4923901;29;20043;-83
2021/01/03 07:57:56;;;;;;;4.97;1.83;;;;;;;-0.21;83.39;101861.13;4957192;29;20070;-82
2021/01/03 08:00:23;;;;;;;2.70;1.50;;;;;;;-0.24;83.22;101857.00;4957587;29;20083;-83
2021/01/03 08:02:54;;;;;;;4.80;1.58;;;;;;;-0.24;83.38;101861.66;4957558;29;20039;-83
2021/01/03 08:05:23;;;;;;;3.08;1.90;;;;;;;-0.25;83.40;101860.00;4972208;28;20098;-83
2021/01/03 08:07:51;;;;;;;3.38;1.95;;;;;;;-0.26;83.34;101858.34;4976937;28;20046;-82
2021/01/03 08:10:17;;;;;;;3.97;1.65;;;;;;;-0.26;83.33;101866.50;4977486;28;20070;-83
2021/01/03 08:12:53;;;;;;;4.70;1.67;;;;;;;-0.31;83.29;101866.41;4977402;28;20035;-83
2021/01/03 08:15:29;;;;;;;2.00;1.38;;;;;;;-0.34;83.28;101870.44;4977225;28;20126;-83
2021/01/03 08:18:06;;;;;;;3.00;1.50;;;;;;;-0.33;83.56;101865.84;4964159;28;20066;-83
2021/01/03 08:20:33;;;;;;;3.70;1.30;;;;;;;-0.32;83.58;101879.19;4960064;28;20074;-82
2021/01/03 08:23:18;;;;;;;3.05;1.65;;;;;;;-0.31;83.73;101866.41;4959609;28;20097;-83
2021/01/03 08:25:45;;;;;;;2.55;1.50;;;;;;;-0.29;83.59;101875.19;4943323;28;20098;-83
2021/01/03 08:28:21;;;;;;;4.32;1.88;;;;;;;-0.31;83.40;101882.75;4959911;28;20042;-82
2021/01/03 08:30:50;;;;;;;3.13;1.45;;;;;;;-0.32;83.59;101879.19;4975415;28;20035;-83
2021/01/03 08:33:38;;;;;;;2.33;1.67;;;;;;;-0.33;83.65;101887.59;4959162;28;20074;-82
2021/01/03 08:36:28;;;;;;;5.03;1.42;;;;;;;-0.29;83.63;101892.31;4977342;28;20063;-83
2021/01/03 08:39:04;;;;;;;2.97;1.73;;;;;;;-0.25;83.61;101892.66;4959478;28;20451;-82
2021/01/03 08:41:36;;;;;;;1.67;1.17;;;;;;;-0.22;83.57;101886.72;4959904;28;20092;-83
2021/01/03 08:44:04;;;;;;;1.52;1.38;;;;;;;-0.21;83.42;101889.19;4943282;28;20054;-83
2021/01/03 08:46:33;;;;;;;10.02;1.88;;;;;;;-0.19;83.65;101892.50;4975804;28;20047;-82
2021/01/03 08:49:08;;;;;;;2.95;1.45;;;;;;;-0.17;83.65;101889.53;4976833;28;20377;-82
2021/01/03 08:51:36;;;;;;;3.45;1.40;;;;;;;-0.15;83.69;101892.81;4959585;28;20046;-82
2021/01/03 08:54:07;;;;;;;2.60;1.33;;;;;;;-0.14;83.67;101895.31;4976497;28;20051;-82
2021/01/03 08:56:54;;;;;;;3.05;1.40;;;;;;;-0.13;83.57;101896.13;4976828;28;20043;-82
2021/01/03 08:59:21;;;;;;;2.22;1.70;;;;;;;-0.11;83.73;101891.28;4976316;28;20047;-82
2021/01/03 09:01:48;;;;;;;2.58;1.10;;;;;;;-0.11;83.70;101894.00;4974860;28;20134;-82
2021/01/03 09:04:19;;;;;;;1.85;1.50;;;;;;;-0.13;83.68;101896.94;4942250;28;20051;-83
2021/01/03 09:06:57;;;;;;;4.07;1.40;;;;;;;-0.13;83.75;101899.66;4958604;28;20078;-82
2021/01/03 09:09:27;;;;;;;4.93;1.48;;;;;;;-0.11;83.57;101899.44;4958758;28;20074;-82
2021/01/03 09:12:06;;;;;;;2.78;1.00;;;;;;;-0.11;83.74;101896.72;4958414;28;20046;-82
2021/01/03 09:14:41;;;;;;;2.47;1.23;;;;;;;-0.12;83.64;101905.94;4975714;28;20043;-82
2021/01/03 09:17:12;;;;;;;2.90;1.00;;;;;;;-0.12;83.78;101904.06;4975344;28;20125;-89
2021/01/03 09:19:57;;;;;;;1.27;0.93;;;;;;;-0.11;83.71;101902.16;4958671;28;20050;-86
2021/01/03 09:22:31;;;;;;;2.92;1.38;;;;;;;-0.10;83.58;101907.34;4938949;28;20146;-85
2021/01/03 09:25:00;;;;;;;2.90;1.00;;;;;;;-0.10;83.71;101901.91;4970280;28;20050;-83
2021/01/03 09:27:30;;;;;;;3.80;1.85;;;;;;;-0.07;83.88;101900.59;4958463;28;20047;-83
2021/01/03 09:30:12;;;;;;;4.38;0.93;;;;;;;-0.10;83.48;101898.34;4942343;28;20078;-84
2021/01/03 09:32:42;;;;;;;2.47;0.90;;;;;;;-0.09;83.66;101900.00;4942341;28;20081;-84
2021/01/03 09:35:20;;;;;;;1.30;1.10;;;;;;;-0.07;83.75;101911.47;4957848;28;20086;-84
2021/01/03 09:38:13;;;;;;;2.00;0.88;;;;;;;-0.07;83.78;101908.75;4957585;28;20047;-87
2021/01/03 09:40:52;;;;;;;;;;;;;;;-0.07;83.65;101903.31;4974030;28;20035;-81
2021/01/03 09:43:52;;;;;;;6.00;1.73;;;;;;;-0.09;83.50;101902.72;4974219;28;20020;-81
2021/01/03 09:46:33;;;;;;;6.15;2.67;;;;;;;-0.10;83.43;101920.13;4955762;29;20091;-81
2021/01/03 09:49:27;;;;;;;5.20;2.58;;;;;;;-0.13;83.65;101913.28;4968496;28;20156;-81
2021/01/03 09:51:59;;;;;;;7.97;3.45;;;;;;;-0.14;83.63;101927.13;4937822;28;20170;-80
2021/01/03 09:54:53;;;;;;;12.05;4.43;;;;;;;-0.15;83.68;101920.03;4972906;28;20093;-81
2021/01/03 09:57:53;;;;;;;12.48;5.03;;;;;;;-0.16;83.79;101913.75;4971471;28;20031;-81
2021/01/03 10:00:53;;;;;;;9.55;3.58;;;;;;;-0.17;83.92;101917.56;4946449;29;20048;-82
2021/01/03 10:03:37;;;;;;;7.15;3.40;;;;;;;-0.17;83.70;101916.75;4953253;28;20275;-83
2021/01/03 10:06:21;;;;;;;7.60;3.63;;;;;;;-0.17;83.65;101922.19;4955943;28;20089;-82
2021/01/03 10:09:28;;;;;;;6.30;2.55;;;;;;;-0.17;83.92;101927.63;4974003;28;20074;-81
2021/01/03 10:11:55;;;;;;;6.22;2.47;;;;;;;-0.12;84.00;101941.31;4956914;28;20444;-84
2021/01/03 10:14:30;;;;;;;3.22;1.75;;;;;;;-0.09;83.91;101929.94;4941147;28;20050;-83
2021/01/03 10:17:11;;;;;;;6.65;2.45;;;;;;;-0.01;84.09;101945.88;4974204;28;20377;-83
2021/01/03 10:19:37;;;;;;;12.40;4.50;;;;;;;0.05;83.82;101942.19;4940363;28;20149;-83
2021/01/03 10:22:03;;;;;;;10.48;3.72;;;;;;;0.09;83.62;101931.59;4955160;28;20042;-81
2021/01/03 10:24:33;;;;;;;9.65;3.30;;;;;;;0.11;83.92;101930.28;4974382;28;20130;-84
2021/01/03 10:27:02;;;;;;;14.73;6.40;;;;;;;0.13;83.51;101922.72;4972099;28;20383;-82
2021/01/03 10:29:30;;;;;;;6.85;2.90;;;;;;;0.14;83.41;101927.06;4955398;28;20133;-81
2021/01/03 10:31:56;;;;;;;7.22;4.68;;;;;;;0.15;83.91;101925.19;4974418;28;20046;-82
2021/01/03 10:34:24;;;;;;;5.93;2.90;;;;;;;0.16;83.80;101930.38;4940803;28;20086;-82
2021/01/03 10:36:54;;;;;;;5.15;1.92;;;;;;;0.19;83.93;101931.75;4973033;28;20062;-82
2021/01/03 10:39:21;;;;;;;2.90;1.85;;;;;;;0.22;84.03;101929.38;4970931;28;20046;-82
2021/01/03 10:41:48;;;;;;;6.15;1.70;;;;;;;0.29;84.11;101937.41;4955612;28;20484;-85
2021/01/03 10:44:15;;;;;;;3.53;1.63;;;;;;;0.33;84.12;101942.09;4953932;28;20106;-83
2021/01/03 10:46:41;;;;;;;3.45;1.60;;;;;;;0.37;84.01;101937.78;4939804;28;20050;-85
2021/01/03 10:49:09;;;;;;;3.50;2.33;;;;;;;0.43;84.07;101931.34;4939350;28;20535;-87
2021/01/03 10:51:41;;;;;;;2.72;1.88;;;;;;;0.51;84.18;101936.38;4961560;28;20090;-88
2021/01/03 10:54:09;;;;;;;3.03;1.80;;;;;;;0.56;83.88;101936.44;4925752;28;20050;-89
2021/01/03 10:56:36;;;;;;;5.15;2.30;;;;;;;0.61;84.02;101933.81;4955409;28;20113;-88
2021/01/03 10:59:07;;;;;;;6.10;2.28;;;;;;;0.69;84.36;101923.56;4955162;28;20049;-90
2021/01/03 11:01:38;;;;;;;6.18;3.13;;;;;;;0.77;84.17;101918.50;4956389;28;20049;-87
2021/01/03 11:04:04;;;;;;;4.25;2.13;;;;;;;0.87;84.23;101912.38;4956309;28;20556;-88
2021/01/03 11:06:43;;;;;;;6.50;3.92;;;;;;;0.96;83.44;101913.56;4955208;28;20051;-88
2021/01/03 11:09:17;;;;;;;4.43;1.88;;;;;;;1.06;83.88;101921.91;4938739;28;20057;-89
2021/01/03 11:11:44;;;;;;;3.47;1.45;;;;;;;1.11;83.71;101921.97;4939413;28;20073;-88
2021/01/03 11:14:11;;;;;;;6.95;1.63;;;;;;;1.18;83.72;101919.84;4954751;28;20050;-89
2021/01/03 11:16:43;;;;;;;3.38;2.55;;;;;;;1.23;83.69;101923.47;4972398;28;20123;-88
2021/01/03 11:19:14;;;;;;;3.75;1.55;;;;;;;1.28;83.47;101917.25;4955405;28;20074;-88
2021/01/03 11:21:40;;;;;;;4.22;1.60;;;;;;;1.35;83.55;101912.41;4953433;28;20125;-84
2021/01/03 11:24:08;;;;;;;4.68;1.73;;;;;;;1.39;83.61;101904.53;4972216;28;20102;-82
2021/01/03 11:26:39;;;;;;;5.60;2.13;;;;;;;1.42;83.19;101902.13;4970803;28;20518;-84
2021/01/03 11:29:08;;;;;;;3.17;1.85;;;;;;;1.42;83.26;101893.94;4955054;28;20488;-85
2021/01/03 11:31:43;;;;;;;3.28;1.35;;;;;;;1.42;83.03;101895.84;4957921;28;20137;-83
2021/01/03 11:34:13;;;;;;;3.38;1.67;;;;;;;1.40;83.18;101898.84;4955236;28;20058;-84
2021/01/03 11:36:47;;;;;;;4.60;1.60;;;;;;;1.42;82.82;101893.94;4954555;28;20078;-83
2021/01/03 11:39:14;;;;;;;4.38;1.85;;;;;;;1.45;82.84;101893.44;4973459;28;20133;-86
2021/01/03 11:41:40;;;;;;;3.13;1.50;;;;;;;1.48;82.82;101886.66;4956880;28;20541;-83
2021/01/03 11:44:07;;;;;;;2.35;1.50;;;;;;;1.52;83.07;101898.69;4940457;28;20134;-85
2021/01/03 11:46:34;;;;;;;1.90;1.75;;;;;;;1.56;83.11;101897.91;4941054;28;20066;-83
2021/01/03 11:49:01;;;;;;;4.90;1.35;;;;;;;1.57;82.85;101902.28;4956504;28;20070;-87
2021/01/03 11:51:29;;;;;;;3.38;1.60;;;;;;;1.59;82.98;101893.84;4955418;28;20146;-85
2021/01/03 11:53:56;;;;;;;4.57;1.30;;;;;;;1.58;82.80;101898.50;4956088;28;20439;-83
2021/01/03 11:56:22;;;;;;;4.10;1.27;;;;;;;1.57;82.73;101904.19;4970101;28;20090;-83